createdAt,value
2019-02-27T00:06:25.228Z,16.57
2019-02-27T00:16:30.414Z,16.73
2019-02-27T00:26:35.614Z,14.53
2019-02-27T00:36:44.871Z,16.30
2019-02-27T00:46:47.593Z,16.83
2019-02-27T00:56:52.923Z,15.63
2019-02-27T01:06:58.293Z,15.73
2019-02-27T01:17:03.573Z,13.43
2019-02-27T01:27:09.069Z,13.60
2019-02-27T01:37:13.878Z,15.27
2019-02-27T01:47:20.055Z,13.97
2019-02-27T01:57:25.041Z,16.10
2019-02-27T02:07:30.352Z,15.57
2019-02-27T02:18:01.198Z,15.43
2019-02-27T02:28:30.752Z,18.35
2019-02-27T02:38:50.906Z,16.07
2019-02-27T02:49:06.216Z,17.53
2019-02-27T02:59:31.075Z,18.13
2019-02-27T03:09:58.710Z,19.90
2019-02-27T03:20:34.322Z,35.87
2019-02-27T03:30:45.480Z,19.80
2019-02-27T03:41:08.739Z,26.12
2019-02-27T03:52:00.093Z,23.73
2019-02-27T04:02:08.752Z,20.93
2019-02-27T04:12:16.639Z,24.67
2019-02-27T04:22:21.125Z,19.00
2019-02-27T04:32:26.309Z,24.52
2019-02-27T04:42:31.605Z,31.23
2019-02-27T04:52:36.847Z,24.87
2019-02-27T05:02:42.075Z,27.00
2019-02-27T05:12:48.176Z,21.30
2019-02-27T05:22:54.136Z,27.17
2019-02-27T05:33:02.056Z,24.00
2019-02-27T05:43:05.756Z,28.57
2019-02-27T05:53:11.533Z,30.37
2019-02-27T06:03:18.323Z,34.05
2019-02-27T06:13:23.336Z,24.60
2019-02-27T06:23:28.478Z,32.53
2019-02-27T06:33:33.796Z,31.07
2019-02-27T06:43:38.892Z,33.73
2019-02-27T06:53:43.953Z,32.47
2019-02-27T07:03:49.031Z,28.13
2019-02-27T07:13:54.346Z,25.37
2019-02-27T07:23:59.546Z,23.57
2019-02-27T07:34:05.196Z,20.93
2019-02-27T07:44:10.299Z,22.90
2019-02-27T07:54:15.407Z,18.48
2019-02-27T08:04:22.866Z,99.57
2019-02-27T08:14:27.232Z,42.25
2019-02-27T08:24:33.686Z,19.32
2019-02-27T08:34:38.885Z,13.65
2019-02-27T08:44:45.751Z,13.88
2019-02-27T08:54:50.888Z,10.55
2019-02-27T09:04:56.032Z,13.30
2019-02-27T09:15:01.139Z,9.25
2019-02-27T09:25:08.310Z,11.95
2019-02-27T09:35:13.431Z,9.83
2019-02-27T09:45:30.201Z,10.20
2019-02-27T09:55:35.291Z,8.18
2019-02-27T10:05:40.779Z,5.28
2019-02-27T10:15:45.916Z,4.92
2019-02-27T10:25:51.036Z,5.40
2019-02-27T10:35:56.273Z,6.67
2019-02-27T10:46:01.358Z,6.87
2019-02-27T10:56:06.144Z,6.85
2019-02-27T11:06:11.007Z,6.42
2019-02-27T11:16:20.840Z,4.10
2019-02-27T11:26:23.285Z,5.50
2019-02-27T11:36:28.378Z,7.92
2019-02-27T11:46:35.112Z,5.80
2019-02-27T11:56:40.328Z,3.90
2019-02-27T12:06:45.540Z,10.72
2019-02-27T12:16:51.775Z,3.20
2019-02-27T12:26:57.663Z,3.40
2019-02-27T12:37:02.889Z,4.67
2019-02-27T12:47:08.080Z,4.83
2019-02-27T12:57:17.379Z,7.33
2019-02-27T13:07:19.888Z,7.90
2019-02-27T13:17:25.199Z,9.28
2019-02-27T13:27:31.331Z,9.65
2019-02-27T13:37:36.512Z,9.93
2019-02-27T13:47:41.809Z,9.78
2019-02-27T13:57:47.008Z,9.53
2019-02-27T14:07:57.294Z,7.40
2019-02-27T14:17:58.714Z,8.40
2019-02-27T14:28:04.247Z,8.93
2019-02-27T14:38:10.558Z,8.30
2019-02-27T14:48:21.428Z,6.75
2019-02-27T14:58:25.670Z,7.20
2019-02-27T15:08:30.753Z,16.63
2019-02-27T15:18:35.880Z,6.70
2019-02-27T15:28:41.698Z,5.97
2019-02-27T15:38:47.021Z,6.37
2019-02-27T15:48:52.128Z,6.87
2019-02-27T15:58:59.387Z,6.43
2019-02-27T16:09:04.182Z,8.30
2019-02-27T16:19:11.582Z,8.07
2019-02-27T16:29:16.757Z,7.53
2019-02-27T16:39:21.879Z,7.53
2019-02-27T16:49:27.293Z,9.93
2019-02-27T16:59:32.667Z,16.63
2019-02-27T17:09:38.151Z,17.13
2019-02-27T17:19:43.581Z,15.70
2019-02-27T17:29:48.751Z,11.77
2019-02-27T17:39:54.198Z,13.23
2019-02-27T17:49:59.717Z,12.70
2019-02-27T18:00:08.784Z,21.85
2019-02-27T18:10:15.382Z,33.10
2019-02-27T18:20:24.474Z,37.27
2019-02-27T18:30:28.272Z,33.67
2019-02-27T18:40:33.774Z,35.13
2019-02-27T18:50:39.256Z,23.93
2019-02-27T19:00:44.874Z,17.80
2019-02-27T19:10:53.573Z,17.57
2019-02-27T19:21:00.255Z,24.03
2019-02-27T19:31:06.229Z,40.33
2019-02-27T19:41:11.584Z,23.67
2019-02-27T19:51:20.070Z,21.47
2019-02-27T20:12:23.036Z,22.07
2019-02-27T20:22:28.647Z,14.10
2019-02-27T20:32:34.157Z,21.97
2019-02-27T20:42:39.756Z,28.23
2019-02-27T20:52:46.556Z,23.93
2019-02-27T21:02:53.433Z,16.47
2019-02-27T21:12:59.657Z,13.77
2019-02-27T21:23:05.942Z,17.00
2019-02-27T21:33:11.996Z,16.97
2019-02-27T21:43:17.500Z,19.53
2019-02-27T21:53:22.782Z,27.62
2019-02-27T22:03:27.960Z,43.13
2019-02-27T22:13:33.387Z,34.47
2019-02-27T22:23:39.523Z,31.80
2019-02-27T22:33:44.589Z,22.33
2019-02-27T22:43:49.691Z,26.23
2019-02-27T22:53:54.716Z,26.17
2019-02-27T23:03:59.901Z,24.20
2019-02-27T23:14:05.239Z,27.93
2019-02-27T23:24:10.990Z,30.00
2019-02-27T23:34:16.007Z,27.17
2019-02-27T23:44:22.059Z,26.20
2019-02-27T23:54:27.198Z,26.70
